createdAt,value
2018-12-03T00:01:29.469Z,0.83
2018-12-03T00:04:15.345Z,0.80
2018-12-03T00:06:45.748Z,1.20
2018-12-03T00:09:14.913Z,1.00
2018-12-03T00:11:44.040Z,0.90
2018-12-03T00:14:13.860Z,0.90
2018-12-03T00:16:43.096Z,1.00
2018-12-03T00:19:12.835Z,0.80
2018-12-03T00:21:42.012Z,0.70
2018-12-03T00:24:11.183Z,0.93
2018-12-03T00:26:40.512Z,0.70
2018-12-03T00:29:10.131Z,0.80
2018-12-03T00:31:39.215Z,0.80
2018-12-03T00:34:08.476Z,1.10
2018-12-03T00:36:37.654Z,1.00
2018-12-03T00:39:08.805Z,0.60
2018-12-03T00:41:38.165Z,0.70
2018-12-03T00:44:07.880Z,0.70
2018-12-03T00:46:37.055Z,0.70
2018-12-03T00:49:06.216Z,1.10
2018-12-03T00:51:35.329Z,0.80
2018-12-03T00:54:04.456Z,0.93
2018-12-03T00:56:33.629Z,0.90
2018-12-03T00:59:02.952Z,0.90
2018-12-03T01:01:36.073Z,0.80
2018-12-03T01:04:06.408Z,0.70
2018-12-03T01:06:36.447Z,0.80
2018-12-03T01:09:08.915Z,0.70
2018-12-03T01:11:38.474Z,0.80
2018-12-03T01:14:07.612Z,0.80
2018-12-03T01:16:36.791Z,0.70
2018-12-03T01:19:05.998Z,0.60
2018-12-03T01:21:35.115Z,0.60
2018-12-03T01:24:04.363Z,0.80
2018-12-03T01:26:33.561Z,0.70
2018-12-03T01:29:03.074Z,0.83
2018-12-03T01:31:32.293Z,0.70
2018-12-03T01:34:02.194Z,0.90
2018-12-03T01:36:31.707Z,0.70
2018-12-03T01:39:00.893Z,0.60
2018-12-03T01:41:30.098Z,0.80
2018-12-03T01:43:59.445Z,0.73
2018-12-03T01:46:28.888Z,0.80
2018-12-03T01:48:58.074Z,0.70
2018-12-03T01:51:27.255Z,0.70
2018-12-03T01:53:56.485Z,0.60
2018-12-03T01:56:25.911Z,0.80
2018-12-03T01:58:55.740Z,0.80
2018-12-03T02:01:24.944Z,0.70
2018-12-03T02:03:54.239Z,1.03
2018-12-03T02:06:23.573Z,0.70
2018-12-03T02:08:52.900Z,0.60
2018-12-03T02:11:22.280Z,0.70
2018-12-03T02:13:51.524Z,0.70
2018-12-03T02:16:20.902Z,0.80
2018-12-03T02:18:50.036Z,0.70
2018-12-03T02:21:19.179Z,0.90
2018-12-03T02:23:48.445Z,0.90
2018-12-03T02:26:17.591Z,0.70
2018-12-03T02:28:46.738Z,0.63
2018-12-03T02:31:16.177Z,0.70
2018-12-03T02:33:45.334Z,0.80
2018-12-03T02:36:14.493Z,0.70
2018-12-03T02:38:43.808Z,0.70
2018-12-03T02:41:13.494Z,0.70
2018-12-03T02:43:42.634Z,0.70
2018-12-03T02:46:11.772Z,0.70
2018-12-03T02:48:41.098Z,0.83
2018-12-03T02:51:10.230Z,0.60
2018-12-03T02:53:39.914Z,0.80
2018-12-03T02:56:09.054Z,0.70
2018-12-03T02:58:38.336Z,0.67
2018-12-03T03:01:08.158Z,0.80
2018-12-03T03:03:39.836Z,0.60
2018-12-03T03:06:10.705Z,0.80
2018-12-03T03:08:41.338Z,0.70
2018-12-03T03:11:12.500Z,0.70
2018-12-03T03:13:42.555Z,0.60
2018-12-03T03:16:11.845Z,0.70
2018-12-03T03:18:41.344Z,0.83
2018-12-03T03:21:11.370Z,0.70
2018-12-03T03:23:40.552Z,0.93
2018-12-03T03:26:09.826Z,0.80
2018-12-03T03:28:40.056Z,0.70
2018-12-03T03:31:09.306Z,0.80
2018-12-03T03:33:38.585Z,0.63
2018-12-03T03:36:08.304Z,0.73
2018-12-03T03:38:37.483Z,0.90
2018-12-03T03:41:06.639Z,1.00
2018-12-03T03:43:35.969Z,0.80
2018-12-03T03:46:05.616Z,0.73
2018-12-03T03:48:42.838Z,0.70
2018-12-03T03:51:12.863Z,0.70
2018-12-03T03:53:42.204Z,0.70
2018-12-03T03:56:11.430Z,0.80
2018-12-03T03:58:40.920Z,3.00
2018-12-03T04:01:10.208Z,2.03
2018-12-03T04:03:39.390Z,1.40
2018-12-03T04:06:08.907Z,1.23
2018-12-03T04:08:38.060Z,0.70
2018-12-03T04:11:07.965Z,0.93
2018-12-03T04:13:37.140Z,0.80
2018-12-03T04:16:06.540Z,0.70
2018-12-03T04:18:36.013Z,0.80
2018-12-03T04:21:06.761Z,0.60
2018-12-03T04:23:35.920Z,0.80
2018-12-03T04:26:05.874Z,0.60
2018-12-03T04:28:35.850Z,0.70
2018-12-03T04:31:05.220Z,0.80
2018-12-03T04:33:34.679Z,0.60
2018-12-03T04:36:03.912Z,0.80
2018-12-03T04:38:33.836Z,0.60
2018-12-03T04:41:03.076Z,0.90
2018-12-03T04:43:32.456Z,0.90
2018-12-03T04:46:01.761Z,0.80
2018-12-03T04:48:31.029Z,0.87
2018-12-03T04:51:00.265Z,0.70
2018-12-03T04:53:29.809Z,1.00
2018-12-03T04:55:58.965Z,0.80
2018-12-03T04:58:28.215Z,0.97
2018-12-03T05:00:57.365Z,0.80
2018-12-03T05:03:26.545Z,0.80
2018-12-03T05:05:55.704Z,0.80
2018-12-03T05:08:24.951Z,0.77
2018-12-03T05:10:54.287Z,0.93
2018-12-03T05:13:25.628Z,0.90
2018-12-03T05:15:54.799Z,0.80
2018-12-03T05:18:24.002Z,0.80
2018-12-03T05:20:53.176Z,0.80
2018-12-03T05:23:22.382Z,0.70
2018-12-03T05:25:51.577Z,0.80
2018-12-03T05:28:20.929Z,0.87
2018-12-03T05:30:50.189Z,1.33
2018-12-03T05:33:19.373Z,1.37
2018-12-03T05:35:48.693Z,1.30
2018-12-03T05:38:17.923Z,1.00
2018-12-03T05:40:47.124Z,1.40
2018-12-03T05:43:16.298Z,1.30
2018-12-03T05:45:45.462Z,1.03
2018-12-03T05:48:15.007Z,1.40
2018-12-03T05:50:44.177Z,1.93
2018-12-03T05:53:13.320Z,1.60
2018-12-03T05:55:42.485Z,1.03
2018-12-03T05:58:11.647Z,1.10
2018-12-03T06:00:40.810Z,1.00
2018-12-03T06:03:09.949Z,1.03
2018-12-03T06:05:39.161Z,1.07
2018-12-03T06:08:08.380Z,0.80
2018-12-03T06:10:37.712Z,1.00
2018-12-03T06:13:07.592Z,0.73
2018-12-03T06:15:36.777Z,0.70
2018-12-03T06:18:06.376Z,0.80
2018-12-03T06:20:35.633Z,0.80
2018-12-03T06:23:04.796Z,0.80
2018-12-03T06:25:34.731Z,0.87
2018-12-03T06:28:03.868Z,0.97
2018-12-03T06:30:33.098Z,0.90
2018-12-03T06:33:02.317Z,0.93
2018-12-03T06:35:32.664Z,1.00
2018-12-03T06:38:02.745Z,0.93
2018-12-03T06:40:32.999Z,0.80
2018-12-03T06:43:02.520Z,0.70
2018-12-03T06:45:31.800Z,0.90
2018-12-03T06:48:09.577Z,0.97
2018-12-03T06:50:39.077Z,0.90
2018-12-03T06:53:08.276Z,0.60
2018-12-03T06:55:37.496Z,0.97
2018-12-03T06:58:07.481Z,0.80
2018-12-03T07:00:36.750Z,0.83
2018-12-03T07:03:06.644Z,0.70
2018-12-03T07:05:35.855Z,1.10
2018-12-03T07:08:06.777Z,0.90
2018-12-03T07:10:35.969Z,1.00
2018-12-03T07:13:10.464Z,1.70
2018-12-03T07:15:42.249Z,1.00
2018-12-03T07:18:12.391Z,1.30
2018-12-03T07:20:41.636Z,1.87
2018-12-03T07:23:10.877Z,2.00
2018-12-03T07:25:40.108Z,1.97
2018-12-03T07:28:09.924Z,2.20
2018-12-03T07:30:39.919Z,2.07
2018-12-03T07:33:09.833Z,1.00
2018-12-03T07:35:38.989Z,1.37
2018-12-03T07:38:08.815Z,2.57
2018-12-03T07:40:38.043Z,6.30
2018-12-03T07:43:07.795Z,3.33
2018-12-03T07:45:37.732Z,1.80
2018-12-03T07:48:06.927Z,1.30
2018-12-03T07:50:36.357Z,1.10
2018-12-03T07:53:06.307Z,1.10
2018-12-03T07:55:35.504Z,0.97
2018-12-03T07:58:13.445Z,1.10
2018-12-03T08:00:47.041Z,0.80
2018-12-03T08:03:16.528Z,0.90
2018-12-03T08:05:45.975Z,0.90
2018-12-03T08:08:15.165Z,1.60
2018-12-03T08:10:49.923Z,1.20
2018-12-03T08:13:20.549Z,0.87
2018-12-03T08:15:49.753Z,1.10
2018-12-03T08:18:22.239Z,1.20
2018-12-03T08:20:57.819Z,1.03
2018-12-03T08:23:36.729Z,1.07
2018-12-03T08:26:08.863Z,1.40
2018-12-03T08:28:38.199Z,1.20
2018-12-03T08:31:07.612Z,1.10
2018-12-03T08:33:37.266Z,0.93
2018-12-03T08:36:08.721Z,1.30
2018-12-03T08:38:39.298Z,0.80
2018-12-03T08:41:08.254Z,0.90
2018-12-03T08:43:37.481Z,1.13
2018-12-03T08:46:09.350Z,1.17
2018-12-03T08:48:41.592Z,0.90
2018-12-03T08:51:12.641Z,1.10
2018-12-03T08:53:45.470Z,1.10
2018-12-03T08:56:14.756Z,1.03
2018-12-03T08:58:44.481Z,2.33
2018-12-03T09:01:17.568Z,1.53
2018-12-03T09:04:00.378Z,1.53
2018-12-03T09:06:29.572Z,1.70
2018-12-03T09:08:58.748Z,2.20
2018-12-03T09:11:27.944Z,1.13
2018-12-03T09:13:57.101Z,1.23
2018-12-03T09:16:26.277Z,1.03
2018-12-03T09:18:56.113Z,1.40
2018-12-03T09:21:25.314Z,1.00
2018-12-03T09:23:59.253Z,0.97
2018-12-03T09:26:28.625Z,1.57
2018-12-03T09:28:58.273Z,1.80
2018-12-03T09:31:27.440Z,2.70
2018-12-03T09:33:59.964Z,2.50
2018-12-03T09:36:30.468Z,0.90
2018-12-03T09:39:10.879Z,1.10
2018-12-03T09:41:40.923Z,1.10
2018-12-03T09:44:10.197Z,1.07
2018-12-03T09:46:39.516Z,0.87
2018-12-03T09:49:09.637Z,0.87
2018-12-03T09:51:38.979Z,0.90
2018-12-03T09:54:11.043Z,0.80
2018-12-03T09:56:44.787Z,1.07
2018-12-03T09:59:21.285Z,0.80
2018-12-03T10:01:53.907Z,1.13
2018-12-03T10:04:35.417Z,0.97
2018-12-03T10:07:04.732Z,1.53
2018-12-03T10:09:39.183Z,1.23
2018-12-03T10:12:10.293Z,1.23
2018-12-03T10:14:39.533Z,1.40
2018-12-03T10:17:08.700Z,1.50
2018-12-03T10:19:37.976Z,1.27
2018-12-03T10:22:08.490Z,1.17
2018-12-03T10:24:38.872Z,1.20
2018-12-03T10:27:12.799Z,1.43
2018-12-03T10:29:43.072Z,1.03
2018-12-03T10:32:17.704Z,1.03
2018-12-03T10:34:47.195Z,1.10
2018-12-03T10:37:18.445Z,0.90
2018-12-03T10:39:47.646Z,1.00
2018-12-03T10:42:18.680Z,0.90
2018-12-03T10:44:48.527Z,1.03
2018-12-03T10:47:18.074Z,1.40
2018-12-03T10:49:47.304Z,1.00
2018-12-03T10:52:22.035Z,1.00
2018-12-03T10:54:51.710Z,1.00
2018-12-03T10:57:22.385Z,1.00
2018-12-03T10:59:54.464Z,1.43
2018-12-03T11:02:39.652Z,0.80
2018-12-03T11:05:14.779Z,1.00
2018-12-03T11:07:44.110Z,1.20
2018-12-03T11:10:13.301Z,1.20
2018-12-03T11:12:43.671Z,1.00
2018-12-03T11:15:15.288Z,1.53
2018-12-03T11:17:45.092Z,1.17
2018-12-03T11:20:14.473Z,1.60
2018-12-03T11:22:45.218Z,1.00
2018-12-03T11:25:17.074Z,1.47
2018-12-03T11:27:50.171Z,1.20
2018-12-03T11:30:19.360Z,1.27
2018-12-03T11:32:48.524Z,0.90
2018-12-03T11:35:24.117Z,0.80
2018-12-03T11:37:58.673Z,1.10
2018-12-03T11:40:39.925Z,0.90
2018-12-03T11:43:15.671Z,0.77
2018-12-03T11:45:45.056Z,0.90
2018-12-03T11:48:15.085Z,1.00
2018-12-03T11:50:44.865Z,0.80
2018-12-03T11:53:14.033Z,0.80
2018-12-03T11:55:43.286Z,1.00
2018-12-03T11:58:12.508Z,1.00
2018-12-03T12:00:42.121Z,0.93
2018-12-03T12:03:11.380Z,1.07
2018-12-03T12:05:40.599Z,1.00
2018-12-03T12:08:10.213Z,0.90
2018-12-03T12:10:39.437Z,0.80
2018-12-03T12:13:08.682Z,1.00
2018-12-03T12:15:37.969Z,0.80
2018-12-03T12:18:08.217Z,1.30
2018-12-03T12:20:37.436Z,1.30
2018-12-03T12:23:07.443Z,0.93
2018-12-03T12:25:37.089Z,1.00
2018-12-03T12:28:07.488Z,1.00
2018-12-03T12:30:36.969Z,1.00
2018-12-03T12:33:07.306Z,0.93
2018-12-03T12:35:37.633Z,0.90
2018-12-03T12:38:06.936Z,0.80
2018-12-03T12:40:36.160Z,1.07
2018-12-03T12:43:05.815Z,0.73
2018-12-03T12:45:47.289Z,1.10
2018-12-03T12:48:17.013Z,1.07
2018-12-03T12:50:46.268Z,1.20
2018-12-03T12:53:15.552Z,0.80
2018-12-03T12:55:45.217Z,1.13
2018-12-03T12:58:14.421Z,0.90
2018-12-03T13:00:43.654Z,1.17
2018-12-03T13:03:13.332Z,1.30
2018-12-03T13:05:42.546Z,1.10
2018-12-03T13:08:11.789Z,0.97
2018-12-03T13:10:40.981Z,1.30
2018-12-03T13:13:10.446Z,1.70
2018-12-03T13:15:39.642Z,0.90
2018-12-03T13:18:09.596Z,1.30
2018-12-03T13:20:38.744Z,1.50
2018-12-03T13:23:08.645Z,2.10
2018-12-03T13:25:38.247Z,1.70
2018-12-03T13:28:07.629Z,2.73
2018-12-03T13:30:36.764Z,2.17
2018-12-03T13:33:07.357Z,2.30
2018-12-03T13:35:36.505Z,1.57
2018-12-03T13:38:05.978Z,1.70
2018-12-03T13:40:36.027Z,1.50
2018-12-03T13:43:05.676Z,2.57
2018-12-03T13:45:35.060Z,1.37
2018-12-03T13:48:04.253Z,1.40
2018-12-03T13:50:33.448Z,1.03
2018-12-03T13:53:03.537Z,2.37
2018-12-03T13:55:33.365Z,1.13
2018-12-03T13:58:03.348Z,1.90
2018-12-03T14:00:33.164Z,1.97
2018-12-03T14:03:12.860Z,2.13
2018-12-03T14:05:55.509Z,2.30
2018-12-03T14:10:50.043Z,2.20
2018-12-03T14:15:37.198Z,1.97
2018-12-03T14:18:18.360Z,1.70
2018-12-03T14:20:49.960Z,1.00
2018-12-03T14:23:24.369Z,1.40
2018-12-03T14:25:53.584Z,1.40
2018-12-03T14:28:27.632Z,2.03
2018-12-03T14:30:58.089Z,1.97
2018-12-03T14:33:27.387Z,1.00
2018-12-03T14:35:56.663Z,1.60
2018-12-03T14:38:25.901Z,1.30
2018-12-03T14:40:55.513Z,1.30
2018-12-03T14:43:24.664Z,1.40
2018-12-03T14:45:54.642Z,1.13
2018-12-03T14:48:23.824Z,1.30
2018-12-03T14:50:53.064Z,1.10
2018-12-03T14:53:22.608Z,1.20
2018-12-03T14:55:51.817Z,0.90
2018-12-03T14:58:21.767Z,1.60
2018-12-03T15:00:50.983Z,2.10
2018-12-03T15:03:20.245Z,2.20
2018-12-03T15:05:49.805Z,2.20
2018-12-03T15:08:18.984Z,1.73
2018-12-03T15:10:48.140Z,2.20
2018-12-03T15:13:17.729Z,2.00
2018-12-03T15:15:46.954Z,2.37
2018-12-03T15:18:17.710Z,2.60
2018-12-03T15:20:51.108Z,2.13
2018-12-03T15:23:20.308Z,1.73
2018-12-03T15:25:49.520Z,3.30
2018-12-03T15:28:18.823Z,3.07
2018-12-03T15:30:48.044Z,2.60
2018-12-03T15:33:17.272Z,2.23
2018-12-03T15:35:46.872Z,2.20
2018-12-03T15:38:16.516Z,2.80
2018-12-03T15:40:46.028Z,2.87
2018-12-03T15:43:15.221Z,2.20
2018-12-03T15:45:44.424Z,3.40
2018-12-03T15:48:13.657Z,3.30
2018-12-03T15:50:42.841Z,2.70
2018-12-03T15:53:12.021Z,3.30
2018-12-03T15:55:42.115Z,1.80
2018-12-03T15:58:11.381Z,1.90
2018-12-03T16:00:40.577Z,1.40
2018-12-03T16:03:10.201Z,1.60
2018-12-03T16:05:39.494Z,1.40
2018-12-03T16:08:08.750Z,1.10
2018-12-03T16:10:38.081Z,2.23
2018-12-03T16:13:07.295Z,3.33
2018-12-03T16:15:36.488Z,4.00
2018-12-03T16:18:05.670Z,2.50
2018-12-03T16:20:34.860Z,4.60
2018-12-03T16:23:04.132Z,2.73
2018-12-03T16:25:34.189Z,2.00
2018-12-03T16:28:03.937Z,2.43
2018-12-03T16:30:33.085Z,3.00
2018-12-03T16:33:02.384Z,2.93
2018-12-03T16:35:31.920Z,3.20
2018-12-03T16:38:01.082Z,2.30
2018-12-03T16:40:30.335Z,3.33
2018-12-03T16:42:59.552Z,4.83
2018-12-03T16:45:28.700Z,3.40
2018-12-03T16:47:57.923Z,3.30
2018-12-03T16:50:27.504Z,4.33
2018-12-03T16:52:56.749Z,3.27
2018-12-03T16:55:26.013Z,2.13
2018-12-03T16:57:55.422Z,3.50
2018-12-03T17:00:24.601Z,2.33
2018-12-03T17:02:53.782Z,3.03
2018-12-03T17:05:22.994Z,4.27
2018-12-03T17:07:52.133Z,4.27
2018-12-03T17:10:22.153Z,4.10
2018-12-03T17:12:53.401Z,4.70
2018-12-03T17:15:23.254Z,7.37
2018-12-03T17:17:52.774Z,7.00
2018-12-03T17:20:38.620Z,6.00
2018-12-03T17:23:28.392Z,5.33
2018-12-03T17:25:57.728Z,5.60
2018-12-03T17:28:27.805Z,4.70
2018-12-03T17:30:57.012Z,4.70
2018-12-03T17:33:26.915Z,5.60
2018-12-03T17:35:56.618Z,5.90
2018-12-03T17:38:25.887Z,5.47
2018-12-03T17:40:55.513Z,6.00
2018-12-03T17:43:25.608Z,6.03
2018-12-03T17:45:56.435Z,7.00
2018-12-03T17:48:25.776Z,5.53
2018-12-03T17:50:55.956Z,4.93
2018-12-03T17:53:25.828Z,6.37
2018-12-03T17:55:54.960Z,7.17
2018-12-03T17:58:24.877Z,6.80
2018-12-03T18:00:54.734Z,7.03
2018-12-03T18:03:24.323Z,19.30
2018-12-03T18:05:53.777Z,16.47
2018-12-03T18:08:23.025Z,20.37
2018-12-03T18:10:52.238Z,24.87
2018-12-03T18:13:21.476Z,17.77
2018-12-03T18:15:50.845Z,8.57
2018-12-03T18:18:20.280Z,10.40
2018-12-03T18:20:49.922Z,11.37
2018-12-03T18:23:19.314Z,8.87
2018-12-03T18:25:49.060Z,8.67
2018-12-03T18:28:18.338Z,10.50
2018-12-03T18:30:47.627Z,10.73
2018-12-03T18:33:17.937Z,9.57
2018-12-03T18:35:47.719Z,6.73
2018-12-03T18:38:16.940Z,8.23
2018-12-03T18:43:57.570Z,4.13
2018-12-03T18:46:27.056Z,4.23
2018-12-03T18:49:04.753Z,2.30
2018-12-03T18:51:34.407Z,2.60
2018-12-03T18:54:03.620Z,2.43
2018-12-03T18:56:32.990Z,1.57
2018-12-03T18:59:06.444Z,1.27
2018-12-03T19:01:35.776Z,1.20
2018-12-03T19:04:05.536Z,1.47
2018-12-03T19:06:34.771Z,1.60
2018-12-03T19:09:04.199Z,1.70
2018-12-03T19:12:03.594Z,1.83
2018-12-03T19:14:32.808Z,1.80
2018-12-03T19:17:02.488Z,1.30
2018-12-03T19:19:31.824Z,2.33
2018-12-03T19:22:00.967Z,1.60
2018-12-03T19:24:31.310Z,1.47
2018-12-03T19:27:00.944Z,1.40
2018-12-03T19:29:30.239Z,1.40
2018-12-03T19:31:59.588Z,1.33
2018-12-03T19:34:29.266Z,1.00
2018-12-03T19:36:58.454Z,0.90
2018-12-03T19:39:27.605Z,1.23
2018-12-03T19:41:56.771Z,1.20
2018-12-03T19:44:26.650Z,0.80
2018-12-03T19:46:56.069Z,0.83
2018-12-03T19:49:25.425Z,1.30
2018-12-03T19:51:56.316Z,1.20
2018-12-03T19:54:25.721Z,0.93
2018-12-03T19:56:55.280Z,1.30
2018-12-03T19:59:28.404Z,0.80
2018-12-03T20:01:57.712Z,0.83
2018-12-03T20:04:32.551Z,0.80
2018-12-03T20:07:01.737Z,0.87
2018-12-03T20:09:31.019Z,1.00
2018-12-03T20:12:00.484Z,0.90
2018-12-03T20:14:29.705Z,1.20
2018-12-03T20:17:00.868Z,1.33
2018-12-03T20:19:30.047Z,1.13
2018-12-03T20:21:59.324Z,1.40
2018-12-03T20:24:29.179Z,2.30
2018-12-03T20:27:20.828Z,1.30
2018-12-03T20:30:33.204Z,1.60
2018-12-03T20:33:15.879Z,1.03
2018-12-03T20:36:01.208Z,1.70
2018-12-03T20:38:39.117Z,1.07
2018-12-03T20:41:13.032Z,1.23
2018-12-03T20:43:43.367Z,1.20
2018-12-03T20:46:19.899Z,1.13
2018-12-03T20:49:20.191Z,1.00
2018-12-03T20:51:52.010Z,0.90
2018-12-03T20:54:21.299Z,0.90
2018-12-03T20:56:50.551Z,1.23
2018-12-03T20:59:19.814Z,1.13
2018-12-03T21:01:50.504Z,1.23
2018-12-03T21:04:22.440Z,1.00
2018-12-03T21:06:52.641Z,1.60
2018-12-03T21:09:21.767Z,1.20
2018-12-03T21:11:51.050Z,1.80
2018-12-03T21:14:20.444Z,1.20
2018-12-03T21:16:49.943Z,1.57
2018-12-03T21:19:19.173Z,1.30
2018-12-03T21:21:49.379Z,1.13
2018-12-03T21:24:19.125Z,1.50
2018-12-03T21:26:48.336Z,1.77
2018-12-03T21:29:17.572Z,2.43
2018-12-03T21:31:47.137Z,1.33
2018-12-03T21:34:16.292Z,1.70
2018-12-03T21:36:46.675Z,1.70
2018-12-03T21:39:15.964Z,1.93
2018-12-03T21:41:45.247Z,1.30
2018-12-03T21:44:14.908Z,1.60
2018-12-03T21:46:44.100Z,1.70
2018-12-03T21:49:13.313Z,1.90
2018-12-03T21:51:43.237Z,1.80
2018-12-03T21:54:14.773Z,5.00
2018-12-03T21:56:44.033Z,3.40
2018-12-03T21:59:13.384Z,2.33
2018-12-03T22:01:42.566Z,1.90
2018-12-03T22:04:11.872Z,2.27
2018-12-03T22:06:41.149Z,2.37
2018-12-03T22:09:10.445Z,3.47
2018-12-03T22:11:40.041Z,2.83
2018-12-03T22:14:09.204Z,2.13
2018-12-03T22:16:39.116Z,2.17
2018-12-03T22:19:08.301Z,1.83
2018-12-03T22:21:38.668Z,2.40
2018-12-03T22:24:08.037Z,2.00
2018-12-03T22:26:37.976Z,1.57
2018-12-03T22:29:07.924Z,1.67
2018-12-03T22:31:37.840Z,1.40
2018-12-03T22:34:08.413Z,2.00
2018-12-03T22:36:37.732Z,1.40
2018-12-03T22:39:08.829Z,1.70
2018-12-03T22:41:38.440Z,1.60
2018-12-03T22:44:08.190Z,1.63
2018-12-03T22:46:37.602Z,1.77
2018-12-03T22:49:06.840Z,1.40
2018-12-03T22:51:36.078Z,1.83
2018-12-03T22:54:06.315Z,1.93
2018-12-03T22:56:36.392Z,1.60
2018-12-03T22:59:05.631Z,1.63
2018-12-03T23:01:34.828Z,1.40
2018-12-03T23:04:04.639Z,1.63
2018-12-03T23:06:33.900Z,1.20
2018-12-03T23:09:03.772Z,1.50
2018-12-03T23:11:33.627Z,1.60
2018-12-03T23:14:02.967Z,1.50
2018-12-03T23:16:32.921Z,2.77
2018-12-03T23:19:02.324Z,2.10
2018-12-03T23:21:31.968Z,1.60
2018-12-03T23:24:01.227Z,2.70
2018-12-03T23:26:30.380Z,3.27
2018-12-03T23:29:00.247Z,2.27
2018-12-03T23:31:29.456Z,1.83
2018-12-03T23:33:58.967Z,3.13
2018-12-03T23:36:28.184Z,2.27
2018-12-03T23:38:57.441Z,1.27
2018-12-03T23:41:26.739Z,6.43
2018-12-03T23:43:56.216Z,3.53
2018-12-03T23:46:26.048Z,2.57
2018-12-03T23:48:55.290Z,1.87
2018-12-03T23:51:25.180Z,1.63
2018-12-03T23:53:54.508Z,1.20
2018-12-03T23:56:24.384Z,1.83
2018-12-03T23:58:54.020Z,3.00
